Time;durP1;ratioP1;P1;durP2;ratioP2;P2;SDS_P1;SDS_P2;PMS_P1;PMS_P2;Temp;Humidity;BMP_temperature;BMP_pressure;BME280_temperature;BME280_humidity;BME280_pressure;Samples;Min_cycle;Max_cycle;Signal;HPM_P1;HPM_P2
2022/02/26 00:00:21;;;;;;;9.13;4.57;;;3.80;88.90;;;;;;4982024;28;20429;-74
2022/02/26 00:02:47;;;;;;;6.30;3.50;;;3.80;88.70;;;;;;4975934;28;20634;-75
2022/02/26 00:05:13;;;;;;;13.30;4.07;;;3.70;89.00;;;;;;4974000;28;20218;-73
2022/02/26 00:07:39;;;;;;;10.33;4.17;;;3.70;89.00;;;;;;4971176;28;20696;-74
2022/02/26 00:10:05;;;;;;;8.70;3.33;;;3.70;89.30;;;;;;4974584;28;20415;-74
2022/02/26 00:12:31;;;;;;;10.80;3.80;;;3.70;89.00;;;;;;4976762;28;20188;-76
2022/02/26 00:14:56;;;;;;;14.37;3.77;;;3.70;89.20;;;;;;4975492;28;20506;-73
2022/02/26 00:17:22;;;;;;;10.10;3.80;;;3.80;89.00;;;;;;4972301;28;20211;-74
2022/02/26 00:19:48;;;;;;;5.70;3.47;;;3.80;88.70;;;;;;4977218;28;20191;-74
2022/02/26 00:22:14;;;;;;;5.80;3.37;;;3.90;88.40;;;;;;4977119;28;20633;-73
2022/02/26 00:24:40;;;;;;;9.07;3.60;;;3.80;88.40;;;;;;4986026;28;20489;-74
2022/02/26 00:27:06;;;;;;;6.90;3.80;;;3.90;88.30;;;;;;4979854;28;20199;-74
2022/02/26 00:29:35;;;;;;;13.60;3.93;;;3.90;88.00;;;;;;4971960;28;20422;-73
2022/02/26 00:32:03;;;;;;;8.37;3.93;;;4.00;88.30;;;;;;4983716;28;20203;-74
2022/02/26 00:34:29;;;;;;;14.40;3.43;;;3.90;88.10;;;;;;4976536;28;20431;-74
2022/02/26 00:36:55;;;;;;;7.17;3.80;;;4.00;88.00;;;;;;4965884;28;20450;-75
2022/02/26 00:39:21;;;;;;;9.80;4.00;;;4.00;88.00;;;;;;4971833;28;20422;-75
2022/02/26 00:41:48;;;;;;;12.73;4.13;;;3.90;87.80;;;;;;4964343;28;20562;-74
2022/02/26 00:44:13;;;;;;;7.97;3.90;;;3.90;88.00;;;;;;4971402;28;20422;-74
2022/02/26 00:46:39;;;;;;;10.93;3.80;;;4.00;87.80;;;;;;4972992;28;20457;-71
2022/02/26 00:51:51;;;;;;;8.83;3.83;;;4.10;87.80;;;;;;4974143;28;20430;-75
2022/02/26 00:54:16;;;;;;;9.23;3.70;;;4.10;87.80;;;;;;4963379;28;20426;-75
2022/02/26 00:56:42;;;;;;;9.63;3.47;;;4.10;87.60;;;;;;4967471;28;20450;-74
2022/02/26 00:59:09;;;;;;;5.93;3.60;;;4.10;87.30;;;;;;4969541;28;20458;-74
2022/02/26 01:01:35;;;;;;;9.17;3.73;;;4.10;87.30;;;;;;4973163;28;20179;-74
2022/02/26 01:04:03;;;;;;;9.83;4.17;;;4.10;87.30;;;;;;4970962;28;20431;-74
2022/02/26 01:06:29;;;;;;;8.87;4.50;;;4.00;87.10;;;;;;4971879;28;20435;-77
2022/02/26 01:08:54;;;;;;;10.63;3.33;;;4.00;87.10;;;;;;4964058;28;20910;-76
2022/02/26 01:11:20;;;;;;;8.67;3.93;;;4.00;87.30;;;;;;4968214;28;20183;-76
2022/02/26 01:13:46;;;;;;;8.77;3.80;;;4.00;87.60;;;;;;4965128;28;20191;-76
2022/02/26 01:16:12;;;;;;;7.63;3.33;;;4.10;87.70;;;;;;4966314;28;20445;-75
2022/02/26 01:18:38;;;;;;;13.83;3.87;;;4.10;87.30;;;;;;4971678;28;20306;-74
2022/02/26 01:21:04;;;;;;;10.27;4.00;;;4.00;87.30;;;;;;4972868;28;20419;-77
2022/02/26 01:23:30;;;;;;;7.20;3.60;;;4.10;87.10;;;;;;4970440;28;20427;-76
2022/02/26 01:25:56;;;;;;;11.43;4.00;;;4.00;87.00;;;;;;4971176;28;20528;-75
2022/02/26 01:28:21;;;;;;;11.73;4.03;;;4.10;87.30;;;;;;4963492;28;20199;-75
2022/02/26 01:30:47;;;;;;;7.37;3.63;;;4.10;87.30;;;;;;4967814;28;20427;-75
2022/02/26 01:33:13;;;;;;;8.17;3.53;;;4.10;87.00;;;;;;4963759;28;20554;-75
2022/02/26 01:35:39;;;;;;;9.70;3.70;;;4.10;87.10;;;;;;4968582;28;20426;-76
2022/02/26 01:38:05;;;;;;;11.10;3.53;;;4.00;87.30;;;;;;4970469;28;20203;-76
2022/02/26 01:40:31;;;;;;;8.70;4.70;;;4.00;87.40;;;;;;4972883;28;20874;-78
2022/02/26 01:42:56;;;;;;;8.97;4.33;;;4.00;87.40;;;;;;4962931;28;20191;-75
2022/02/26 01:45:26;;;;;;;18.73;5.20;;;3.80;87.60;;;;;;4966563;28;20485;-76
2022/02/26 01:47:53;;;;;;;13.40;4.87;;;3.90;88.00;;;;;;4968037;28;20290;-78
2022/02/26 01:50:19;;;;;;;8.00;3.57;;;4.00;87.80;;;;;;4965808;28;20426;-76
2022/02/26 01:52:45;;;;;;;10.97;4.60;;;4.10;87.70;;;;;;4965980;28;20424;-76
2022/02/26 01:55:12;;;;;;;8.50;4.00;;;4.10;87.30;;;;;;4971980;28;20427;-74
2022/02/26 01:57:38;;;;;;;7.53;3.73;;;4.10;87.10;;;;;;4964723;28;20459;-76
2022/02/26 02:00:06;;;;;;;11.10;4.00;;;4.10;87.00;;;;;;4970431;28;20415;-77
2022/02/26 02:02:32;;;;;;;8.40;4.20;;;4.00;86.90;;;;;;4967795;28;20937;-75
2022/02/26 02:04:57;;;;;;;12.80;4.50;;;4.00;86.80;;;;;;4971118;28;20465;-75
2022/02/26 02:07:24;;;;;;;6.00;4.30;;;3.90;87.10;;;;;;4962012;28;20443;-75
2022/02/26 02:09:50;;;;;;;8.80;4.13;;;3.90;87.30;;;;;;4968037;28;20206;-74
2022/02/26 02:12:17;;;;;;;7.67;4.33;;;3.80;87.70;;;;;;4967276;28;20505;-76
2022/02/26 02:14:45;;;;;;;9.17;4.13;;;3.80;87.80;;;;;;4972048;28;20917;-74
2022/02/26 02:17:11;;;;;;;13.43;4.73;;;3.80;88.00;;;;;;4965254;28;20470;-78
2022/02/26 02:19:37;;;;;;;11.67;4.73;;;3.70;88.40;;;;;;4973254;28;21245;-76
2022/02/26 02:22:07;;;;;;;11.53;4.57;;;3.70;88.90;;;;;;4972967;28;20435;-77
2022/02/26 02:24:34;;;;;;;7.33;3.60;;;3.70;88.90;;;;;;4966358;28;20210;-75
2022/02/26 02:27:01;;;;;;;11.17;4.40;;;3.70;89.00;;;;;;4970606;28;20447;-78
2022/02/26 02:29:28;;;;;;;11.50;3.97;;;3.70;89.00;;;;;;4965035;28;20446;-76
2022/02/26 02:31:54;;;;;;;18.47;4.40;;;3.80;88.70;;;;;;4965122;28;20415;-77
2022/02/26 02:34:20;;;;;;;9.13;4.10;;;3.80;88.70;;;;;;4963831;28;20816;-73
2022/02/26 02:36:47;;;;;;;9.30;4.97;;;3.80;88.70;;;;;;4961574;28;20458;-77
2022/02/26 02:39:14;;;;;;;17.23;4.40;;;3.70;88.70;;;;;;4969960;28;20191;-77
2022/02/26 02:41:40;;;;;;;9.73;4.40;;;3.70;88.70;;;;;;4961025;28;20459;-77
2022/02/26 02:44:06;;;;;;;15.23;5.00;;;3.60;88.90;;;;;;4968064;28;20407;-77
2022/02/26 02:46:33;;;;;;;13.90;4.87;;;3.60;89.00;;;;;;4964817;28;20800;-76
2022/02/26 02:48:59;;;;;;;9.40;4.53;;;3.60;89.20;;;;;;4965034;28;20470;-75
2022/02/26 02:51:25;;;;;;;7.60;3.97;;;3.60;89.30;;;;;;4964161;28;20454;-75
2022/02/26 02:53:51;;;;;;;11.37;4.80;;;3.50;89.50;;;;;;4966028;28;21020;-76
2022/02/26 02:56:16;;;;;;;11.87;4.70;;;3.50;89.60;;;;;;4967307;28;20419;-77
2022/02/26 02:58:42;;;;;;;11.73;5.33;;;3.40;89.70;;;;;;4964185;28;20976;-74
2022/02/26 03:01:08;;;;;;;12.10;4.93;;;3.40;90.00;;;;;;4968906;28;20642;-75
2022/02/26 03:03:34;;;;;;;15.13;5.03;;;3.30;90.30;;;;;;4966298;28;20262;-76
2022/02/26 03:06:00;;;;;;;15.27;5.70;;;3.40;90.30;;;;;;4966031;28;20215;-73
2022/02/26 03:08:26;;;;;;;11.23;5.07;;;3.30;90.40;;;;;;4970583;28;20453;-74
2022/02/26 03:10:55;;;;;;;10.03;5.20;;;3.30;90.50;;;;;;4969076;28;20518;-74
2022/02/26 03:13:23;;;;;;;16.47;5.60;;;3.40;90.60;;;;;;4971434;28;20250;-75
2022/02/26 03:15:50;;;;;;;14.50;7.70;;;3.40;90.30;;;;;;4964882;28;20515;-76
2022/02/26 03:18:18;;;;;;;11.90;5.37;;;3.50;90.10;;;;;;4968945;28;20473;-75
2022/02/26 03:20:44;;;;;;;15.63;6.07;;;3.40;90.10;;;;;;4960953;28;20474;-77
2022/02/26 03:23:10;;;;;;;16.53;5.70;;;3.40;90.10;;;;;;4967765;28;20434;-77
2022/02/26 03:25:36;;;;;;;11.63;5.73;;;3.30;90.10;;;;;;4967118;28;20454;-76
2022/02/26 03:28:02;;;;;;;13.93;5.80;;;3.40;90.10;;;;;;4966366;28;20457;-76
2022/02/26 03:30:28;;;;;;;18.07;6.03;;;3.30;90.40;;;;;;4969930;28;20457;-75
2022/02/26 03:32:54;;;;;;;18.70;7.03;;;3.40;90.40;;;;;;4969973;28;20518;-75
2022/02/26 03:35:20;;;;;;;13.20;5.70;;;3.30;90.50;;;;;;4975213;28;20252;-75
2022/02/26 03:37:46;;;;;;;16.03;6.90;;;3.30;90.60;;;;;;4970535;28;20446;-76
2022/02/26 03:40:13;;;;;;;19.57;5.63;;;3.30;90.60;;;;;;4971062;28;20185;-75
2022/02/26 03:42:39;;;;;;;18.17;6.03;;;3.30;90.70;;;;;;4966334;28;20286;-73
2022/02/26 03:45:07;;;;;;;12.40;5.80;;;3.40;90.60;;;;;;4968300;28;20462;-74
2022/02/26 03:47:33;;;;;;;11.47;5.87;;;3.30;90.60;;;;;;4968883;28;20598;-75
2022/02/26 03:49:59;;;;;;;15.17;6.70;;;3.30;90.60;;;;;;4966247;28;20968;-75
2022/02/26 03:52:25;;;;;;;18.03;6.00;;;3.30;90.80;;;;;;4969053;28;20421;-77
2022/02/26 03:54:51;;;;;;;11.20;6.13;;;3.30;90.80;;;;;;4964529;28;20423;-75
2022/02/26 03:57:17;;;;;;;14.10;6.10;;;3.30;90.80;;;;;;4966893;28;20518;-76
2022/02/26 03:59:43;;;;;;;19.23;6.43;;;3.30;90.80;;;;;;4969572;28;21076;-77
2022/02/26 04:02:08;;;;;;;19.77;5.63;;;3.30;90.80;;;;;;4970826;28;20422;-75
2022/02/26 04:04:35;;;;;;;16.13;7.70;;;3.30;90.90;;;;;;4974247;28;20464;-76
2022/02/26 04:07:02;;;;;;;16.10;6.20;;;3.20;91.00;;;;;;4970725;28;20207;-76
2022/02/26 04:09:28;;;;;;;13.03;6.80;;;3.20;91.10;;;;;;4968372;28;20506;-75
2022/02/26 04:11:54;;;;;;;13.07;6.63;;;3.30;91.10;;;;;;4969240;28;20509;-77
2022/02/26 04:14:20;;;;;;;16.23;7.40;;;3.20;91.10;;;;;;4966611;28;20191;-74
2022/02/26 04:16:46;;;;;;;19.40;7.47;;;3.10;91.20;;;;;;4981824;28;20273;-76
2022/02/26 04:19:11;;;;;;;14.03;7.13;;;3.10;91.40;;;;;;4981346;28;20449;-73
2022/02/26 04:21:37;;;;;;;16.47;6.80;;;3.10;91.40;;;;;;4997388;28;20891;-73
2022/02/26 04:24:03;;;;;;;16.13;6.50;;;3.10;91.30;;;;;;4997354;28;20213;-76
2022/02/26 04:26:29;;;;;;;16.10;6.77;;;3.10;91.30;;;;;;4992159;28;20214;-72
2022/02/26 04:28:55;;;;;;;15.77;5.70;;;3.20;91.30;;;;;;4997877;28;20493;-73
2022/02/26 04:31:22;;;;;;;17.67;7.80;;;3.10;91.30;;;;;;4991234;28;20226;-73
2022/02/26 04:33:48;;;;;;;12.10;6.07;;;3.10;91.30;;;;;;4998895;28;20422;-73
2022/02/26 04:36:14;;;;;;;13.13;6.22;;;3.10;91.40;;;;;;4996336;28;20473;-72
2022/02/26 04:38:40;;;;;;;13.17;6.67;;;3.10;91.40;;;;;;4986259;28;20192;-73
2022/02/26 04:41:07;;;;;;;17.90;6.80;;;3.00;91.50;;;;;;4996370;28;20458;-73
2022/02/26 04:43:34;;;;;;;15.47;6.47;;;3.00;91.60;;;;;;4991488;28;20235;-73
2022/02/26 04:46:00;;;;;;;12.10;6.50;;;3.10;91.60;;;;;;4991755;28;20478;-73
2022/02/26 04:48:26;;;;;;;15.00;7.47;;;3.10;91.60;;;;;;4990809;28;20550;-74
2022/02/26 04:50:52;;;;;;;17.20;7.90;;;3.10;91.40;;;;;;4974562;28;20192;-74
2022/02/26 04:53:18;;;;;;;19.20;6.53;;;3.20;91.30;;;;;;4977247;28;20433;-76
2022/02/26 04:55:44;;;;;;;20.50;7.17;;;3.10;91.20;;;;;;4968603;28;20422;-75
2022/02/26 04:58:10;;;;;;;18.20;6.57;;;3.20;91.30;;;;;;4965277;28;20481;-74
2022/02/26 05:00:36;;;;;;;20.90;6.67;;;3.20;91.20;;;;;;4968496;28;20183;-75
2022/02/26 05:03:02;;;;;;;17.10;7.40;;;3.20;91.00;;;;;;4975616;28;20513;-75
2022/02/26 05:05:28;;;;;;;20.20;7.00;;;3.30;91.10;;;;;;4975099;28;20257;-75
2022/02/26 05:07:54;;;;;;;20.43;6.50;;;3.30;90.90;;;;;;4968098;28;20875;-75
2022/02/26 05:10:20;;;;;;;17.87;7.07;;;3.30;90.80;;;;;;4975199;28;20458;-75
2022/02/26 05:12:46;;;;;;;19.87;7.87;;;3.30;90.70;;;;;;4965535;28;20184;-76
2022/02/26 05:15:12;;;;;;;17.37;6.90;;;3.30;90.70;;;;;;4971749;28;20426;-77
2022/02/26 05:17:41;;;;;;;16.00;6.97;;;3.40;90.70;;;;;;4967770;28;20504;-76
2022/02/26 05:20:09;;;;;;;15.17;7.83;;;3.30;90.50;;;;;;4970101;28;20466;-76
2022/02/26 05:22:37;;;;;;;18.23;6.03;;;3.30;90.60;;;;;;4972954;28;20423;-76
2022/02/26 05:25:05;;;;;;;19.13;6.87;;;3.30;90.60;;;;;;4974771;28;20451;-75
2022/02/26 05:27:30;;;;;;;14.67;6.50;;;3.40;90.60;;;;;;4969948;28;20450;-78
2022/02/26 05:29:56;;;;;;;17.20;6.53;;;3.40;90.30;;;;;;4964628;28;20424;-77
2022/02/26 05:32:22;;;;;;;19.00;7.47;;;3.40;90.30;;;;;;4978706;28;20179;-75
2022/02/26 05:34:51;;;;;;;20.27;6.60;;;3.40;90.10;;;;;;4979386;28;21065;-73
2022/02/26 05:37:18;;;;;;;16.27;6.90;;;3.40;90.10;;;;;;4985835;28;20450;-74
2022/02/26 05:39:43;;;;;;;20.30;7.50;;;3.30;90.40;;;;;;4986825;28;20433;-75
2022/02/26 05:42:09;;;;;;;25.77;6.90;;;3.40;90.40;;;;;;4973140;28;20434;-77
2022/02/26 05:44:35;;;;;;;18.90;6.63;;;3.40;90.40;;;;;;4973799;28;20881;-76
2022/02/26 05:47:01;;;;;;;24.43;8.03;;;3.30;90.40;;;;;;4964195;28;20207;-76
2022/02/26 05:49:26;;;;;;;20.00;7.13;;;3.40;90.40;;;;;;4965931;28;20235;-76
2022/02/26 05:51:52;;;;;;;16.70;6.40;;;3.40;90.40;;;;;;4969780;28;20657;-75
2022/02/26 05:54:18;;;;;;;19.43;7.27;;;3.40;90.40;;;;;;4965218;28;20267;-75
2022/02/26 05:56:44;;;;;;;17.50;6.93;;;3.40;90.40;;;;;;4966866;28;20206;-78
2022/02/26 05:59:09;;;;;;;21.23;7.60;;;3.40;90.30;;;;;;4967136;28;20477;-77
2022/02/26 06:01:35;;;;;;;13.10;6.53;;;3.40;90.20;;;;;;4970817;28;20647;-77
2022/02/26 06:04:01;;;;;;;19.10;7.00;;;3.40;90.30;;;;;;4970615;28;20295;-76
2022/02/26 06:06:27;;;;;;;19.03;8.50;;;3.40;90.10;;;;;;4970937;28;20207;-77
2022/02/26 06:08:53;;;;;;;18.60;7.97;;;3.30;90.20;;;;;;4959466;28;20570;-76
2022/02/26 06:11:19;;;;;;;19.70;7.63;;;3.30;90.40;;;;;;4965299;28;20430;-77
2022/02/26 06:13:46;;;;;;;20.40;8.50;;;3.30;90.40;;;;;;4956163;28;20430;-76
2022/02/26 06:16:11;;;;;;;15.37;7.53;;;3.30;90.60;;;;;;4964777;28;20432;-76
2022/02/26 06:18:37;;;;;;;17.17;6.67;;;3.30;90.60;;;;;;4963265;28;20455;-75
2022/02/26 06:21:03;;;;;;;20.27;9.13;;;3.20;90.60;;;;;;4961793;28;20435;-75
2022/02/26 06:23:29;;;;;;;22.13;8.33;;;3.10;90.80;;;;;;4961266;28;20271;-76
2022/02/26 06:25:54;;;;;;;21.90;7.90;;;3.10;91.00;;;;;;4969868;28;20716;-77
2022/02/26 06:28:20;;;;;;;18.50;7.93;;;3.20;91.00;;;;;;4961846;28;20203;-76
2022/02/26 06:30:46;;;;;;;18.63;8.63;;;3.20;91.00;;;;;;4965179;28;20578;-75
2022/02/26 06:33:13;;;;;;;18.03;7.90;;;3.20;91.10;;;;;;4963222;28;20668;-75
2022/02/26 06:35:41;;;;;;;19.33;9.33;;;3.30;90.90;;;;;;4966576;28;20187;-76
2022/02/26 06:38:07;;;;;;;22.37;8.20;;;3.30;90.90;;;;;;4961873;28;20447;-77
2022/02/26 06:40:33;;;;;;;18.00;8.17;;;3.30;90.60;;;;;;4965637;28;20851;-75
2022/02/26 06:42:59;;;;;;;18.70;8.83;;;3.30;90.70;;;;;;4958873;28;20431;-78
2022/02/26 06:45:25;;;;;;;18.80;8.30;;;3.40;90.90;;;;;;4963281;28;20521;-74
2022/02/26 06:47:51;;;;;;;17.07;7.83;;;3.50;91.00;;;;;;4962966;28;20973;-78
2022/02/26 06:50:17;;;;;;;14.63;7.87;;;3.60;90.50;;;;;;4963613;28;20423;-78
2022/02/26 06:52:42;;;;;;;29.80;7.77;;;3.60;90.10;;;;;;4961780;28;20199;-76
2022/02/26 06:55:08;;;;;;;18.30;8.33;;;3.70;89.90;;;;;;4963227;28;20626;-75
2022/02/26 06:57:34;;;;;;;25.43;7.43;;;3.70;89.50;;;;;;4968139;28;20294;-77
2022/02/26 07:00:00;;;;;;;20.20;7.47;;;3.70;89.30;;;;;;4967889;28;20913;-75
2022/02/26 07:02:26;;;;;;;18.13;8.00;;;3.70;89.20;;;;;;4968016;28;20273;-74
2022/02/26 07:04:52;;;;;;;18.07;8.20;;;3.70;88.90;;;;;;4963657;28;21000;-78
2022/02/26 07:07:18;;;;;;;17.20;7.57;;;3.50;89.20;;;;;;4970733;28;20446;-76
2022/02/26 07:09:46;;;;;;;23.83;7.80;;;3.60;89.60;;;;;;4962232;28;20559;-77
2022/02/26 07:12:12;;;;;;;23.90;8.20;;;3.50;89.50;;;;;;4970178;28;20189;-78
2022/02/26 07:14:38;;;;;;;20.87;7.70;;;3.50;89.70;;;;;;4962741;28;20440;-75
2022/02/26 07:17:04;;;;;;;15.90;7.53;;;3.60;90.00;;;;;;4965928;28;20254;-75
2022/02/26 07:19:30;;;;;;;19.07;7.10;;;3.60;89.90;;;;;;4972012;28;20586;-76
2022/02/26 07:21:57;;;;;;;25.80;8.10;;;3.70;89.60;;;;;;4966067;28;20433;-78
2022/02/26 07:24:23;;;;;;;17.93;7.57;;;3.70;89.30;;;;;;4967972;28;20454;-78
2022/02/26 07:26:49;;;;;;;20.30;8.87;;;3.70;89.00;;;;;;4966533;28;20506;-77
2022/02/26 07:29:15;;;;;;;31.27;9.70;;;3.70;89.20;;;;;;4971465;28;20175;-76
2022/02/26 07:31:40;;;;;;;22.50;7.37;;;3.70;89.20;;;;;;4971067;28;20266;-76
2022/02/26 07:34:06;;;;;;;20.63;7.57;;;3.70;88.90;;;;;;4972230;28;20668;-76
2022/02/26 07:36:32;;;;;;;22.47;8.47;;;3.70;88.90;;;;;;4970034;28;20734;-78
2022/02/26 07:38:58;;;;;;;21.80;8.10;;;3.70;89.20;;;;;;4966034;28;20252;-78
2022/02/26 07:41:24;;;;;;;26.00;9.17;;;3.80;89.20;;;;;;4970197;28;20936;-77
2022/02/26 07:43:50;;;;;;;25.63;8.10;;;4.00;88.70;;;;;;4969728;28;20246;-76
2022/02/26 07:46:16;;;;;;;18.90;8.40;;;4.00;88.00;;;;;;4966647;28;20898;-77
2022/02/26 07:48:42;;;;;;;14.37;7.20;;;4.10;87.60;;;;;;4966796;28;20206;-78
2022/02/26 07:51:07;;;;;;;17.60;8.00;;;4.10;87.30;;;;;;4972066;28;20184;-76
2022/02/26 07:53:33;;;;;;;21.63;8.90;;;4.20;87.10;;;;;;4971878;28;20191;-75
2022/02/26 07:56:00;;;;;;;20.20;8.20;;;4.30;87.00;;;;;;4966477;28;20218;-77
2022/02/26 07:58:27;;;;;;;15.60;8.80;;;4.30;86.80;;;;;;4971942;28;20863;-77
2022/02/26 08:00:53;;;;;;;18.83;7.60;;;4.30;86.60;;;;;;4970928;28;20445;-75
2022/02/26 08:03:18;;;;;;;20.53;9.00;;;4.30;86.00;;;;;;4970797;28;20434;-75
2022/02/26 08:05:44;;;;;;;23.70;8.53;;;4.30;85.70;;;;;;4970707;28;20219;-77
2022/02/26 08:08:10;;;;;;;19.77;8.37;;;4.30;85.90;;;;;;4982086;28;20203;-76
2022/02/26 08:10:36;;;;;;;15.97;8.37;;;4.20;85.90;;;;;;4965427;28;20552;-77
2022/02/26 08:13:02;;;;;;;17.63;8.90;;;4.20;85.60;;;;;;4968971;28;20434;-77
2022/02/26 08:15:29;;;;;;;28.30;9.53;;;4.10;85.70;;;;;;4967465;28;20187;-76
2022/02/26 08:17:56;;;;;;;17.80;9.37;;;4.10;85.90;;;;;;4975130;28;20472;-76
2022/02/26 08:20:25;;;;;;;18.97;9.43;;;4.10;86.20;;;;;;4978681;28;20491;-76
2022/02/26 08:22:52;;;;;;;19.83;8.87;;;4.10;86.00;;;;;;4978191;28;20426;-77
2022/02/26 08:25:18;;;;;;;18.53;8.97;;;4.00;86.20;;;;;;4971644;28;20466;-75
2022/02/26 08:27:44;;;;;;;22.73;10.13;;;4.00;86.50;;;;;;4973673;28;20465;-74
2022/02/26 08:30:13;;;;;;;18.00;8.10;;;4.00;86.20;;;;;;4977303;28;20477;-77
2022/02/26 08:32:41;;;;;;;29.17;8.87;;;4.10;86.00;;;;;;4975816;28;20646;-77
2022/02/26 08:35:08;;;;;;;22.40;9.33;;;4.20;85.60;;;;;;4975170;28;20419;-77
2022/02/26 08:37:38;;;;;;;22.40;8.73;;;4.30;85.50;;;;;;4966897;28;20446;-77
2022/02/26 08:40:06;;;;;;;22.20;8.90;;;4.30;85.60;;;;;;4968468;28;20505;-76
2022/02/26 08:42:32;;;;;;;20.70;8.63;;;4.50;85.20;;;;;;4976193;28;20422;-77
2022/02/26 08:45:02;;;;;;;17.67;7.50;;;4.60;84.30;;;;;;4970599;28;20517;-74
2022/02/26 08:47:31;;;;;;;26.33;8.73;;;4.60;83.30;;;;;;4975793;28;20442;-75
2022/02/26 08:49:59;;;;;;;16.27;9.00;;;4.60;83.70;;;;;;4981304;28;20513;-73
2022/02/26 08:52:25;;;;;;;19.47;8.20;;;4.60;84.00;;;;;;4977520;28;20892;-72
2022/02/26 08:54:51;;;;;;;21.07;9.53;;;4.70;83.80;;;;;;4979830;28;20438;-73
2022/02/26 08:57:17;;;;;;;18.20;9.27;;;4.80;83.10;;;;;;4978847;28;20869;-75
2022/02/26 08:59:43;;;;;;;16.73;9.27;;;4.80;83.00;;;;;;4986745;28;20612;-74
2022/02/26 09:02:08;;;;;;;19.90;8.23;;;4.70;83.10;;;;;;4976182;28;20422;-80
2022/02/26 09:04:35;;;;;;;19.93;7.87;;;4.60;82.80;;;;;;4975373;28;20514;-71
2022/02/26 09:07:01;;;;;;;24.90;8.63;;;4.50;82.20;;;;;;4974641;28;20298;-74
2022/02/26 09:09:27;;;;;;;21.70;9.60;;;4.60;82.40;;;;;;4967203;28;20783;-76
2022/02/26 09:11:53;;;;;;;22.47;8.70;;;4.80;82.20;;;;;;4978777;28;20423;-74
2022/02/26 09:14:19;;;;;;;17.10;7.50;;;4.90;82.20;;;;;;4978204;28;20520;-75
2022/02/26 09:16:45;;;;;;;20.83;7.53;;;5.00;78.90;;;;;;4973070;28;20482;-75
2022/02/26 09:19:11;;;;;;;13.90;6.60;;;5.10;78.40;;;;;;4980918;28;20179;-74
2022/02/26 09:21:37;;;;;;;18.97;8.80;;;5.10;77.80;;;;;;4969124;28;20952;-75
2022/02/26 09:24:03;;;;;;;14.60;6.67;;;5.10;76.50;;;;;;4971936;28;20443;-76
2022/02/26 09:26:28;;;;;;;19.50;7.50;;;5.00;75.90;;;;;;4977154;28;20235;-75
2022/02/26 09:28:54;;;;;;;14.03;7.80;;;4.90;76.40;;;;;;4975288;28;20430;-74
2022/02/26 09:31:21;;;;;;;16.60;6.60;;;4.90;76.70;;;;;;4989419;28;20699;-73
2022/02/26 09:33:47;;;;;;;18.40;7.00;;;4.90;75.90;;;;;;4989637;28;20219;-73
2022/02/26 09:36:13;;;;;;;21.87;8.43;;;4.90;75.40;;;;;;4987614;28;20418;-77
2022/02/26 09:38:40;;;;;;;16.27;7.60;;;4.80;75.40;;;;;;4986935;28;20443;-74
2022/02/26 09:41:07;;;;;;;14.63;7.63;;;4.90;75.90;;;;;;4976901;28;20424;-73
2022/02/26 09:43:33;;;;;;;16.97;6.80;;;5.00;75.80;;;;;;4978823;28;20423;-73
2022/02/26 09:45:59;;;;;;;14.53;6.60;;;5.10;75.20;;;;;;4976628;28;20874;-74
2022/02/26 09:48:26;;;;;;;17.80;6.50;;;5.20;74.90;;;;;;4993695;28;20464;-75
2022/02/26 09:50:52;;;;;;;19.13;6.27;;;5.30;72.70;;;;;;4985636;28;20426;-74
2022/02/26 09:53:19;;;;;;;15.57;6.60;;;5.50;72.70;;;;;;4969375;28;20419;-74
2022/02/26 09:55:45;;;;;;;10.10;5.07;;;5.70;72.10;;;;;;4974814;28;20434;-76
2022/02/26 09:58:15;;;;;;;13.33;5.80;;;6.00;71.40;;;;;;4978340;28;20990;-76
2022/02/26 10:00:42;;;;;;;8.93;3.40;;;6.20;70.50;;;;;;4980556;28;20481;-74
2022/02/26 10:03:33;;;;;;;9.00;3.10;;;6.30;64.70;;;;;;4974024;28;20466;-75
2022/02/26 10:06:19;;;;;;;9.43;2.40;;;6.40;60.40;;;;;;4980835;28;20490;-73
2022/02/26 10:08:49;;;;;;;8.07;2.50;;;6.30;56.50;;;;;;4974150;28;20419;-77
2022/02/26 10:11:33;;;;;;;6.50;2.50;;;6.30;56.00;;;;;;4983607;28;20615;-75
2022/02/26 10:14:02;;;;;;;7.03;2.93;;;6.20;56.40;;;;;;4977452;28;20422;-74
2022/02/26 10:16:54;;;;;;;5.40;2.20;;;6.00;56.10;;;;;;4984180;28;21152;-76
2022/02/26 10:19:31;;;;;;;8.07;2.37;;;6.20;57.00;;;;;;4985856;28;20430;-74
2022/02/26 10:22:01;;;;;;;8.20;2.23;;;6.20;54.50;;;;;;4978529;28;20874;-74
2022/02/26 10:24:28;;;;;;;6.53;2.07;;;5.80;54.00;;;;;;4986678;28;20422;-76
2022/02/26 10:26:57;;;;;;;4.13;2.57;;;5.90;54.40;;;;;;4993317;28;20441;-75
2022/02/26 10:29:23;;;;;;;5.60;2.00;;;5.90;53.80;;;;;;4987971;28;20459;-76
2022/02/26 10:31:51;;;;;;;6.47;1.60;;;5.80;53.80;;;;;;4974628;28;20517;-76
2022/02/26 10:34:44;;;;;;;6.30;2.40;;;5.80;54.40;;;;;;4974364;28;20470;-75
2022/02/26 10:37:15;;;;;;;5.60;2.17;;;5.70;54.10;;;;;;4972179;28;20446;-74
2022/02/26 10:39:48;;;;;;;7.13;2.97;;;5.90;54.20;;;;;;4973727;28;20514;-78
2022/02/26 10:42:20;;;;;;;8.40;2.17;;;5.80;54.50;;;;;;4973730;28;20485;-76
2022/02/26 10:45:01;;;;;;;8.40;2.00;;;5.90;54.90;;;;;;4981639;28;20466;-78
2022/02/26 10:47:29;;;;;;;6.43;2.00;;;6.00;54.50;;;;;;4986094;28;20437;-73
2022/02/26 10:49:54;;;;;;;7.03;2.77;;;6.30;54.60;;;;;;4984144;28;20428;-76
2022/02/26 10:52:20;;;;;;;10.23;4.13;;;6.50;54.50;;;;;;4985741;28;20425;-77
2022/02/26 10:54:55;;;;;;;6.43;3.00;;;6.70;54.10;;;;;;4980688;28;20431;-74
2022/02/26 10:57:21;;;;;;;10.80;2.87;;;6.80;54.60;;;;;;4981594;28;20199;-78
2022/02/26 10:59:53;;;;;;;6.90;2.43;;;7.00;54.00;;;;;;4991260;28;20454;-75
2022/02/26 11:02:22;;;;;;;12.10;3.40;;;7.20;53.30;;;;;;4985989;28;20402;-75
2022/02/26 11:04:49;;;;;;;6.23;3.40;;;7.00;54.00;;;;;;4984647;28;20469;-76
2022/02/26 11:07:15;;;;;;;10.93;4.17;;;6.70;55.60;;;;;;4978633;28;20429;-73
2022/02/26 11:09:43;;;;;;;8.37;3.10;;;6.50;57.40;;;;;;4988758;28;20438;-74
2022/02/26 11:12:12;;;;;;;17.43;4.47;;;6.40;58.00;;;;;;4982787;28;20238;-79
2022/02/26 11:14:44;;;;;;;7.63;3.47;;;6.00;59.30;;;;;;4979611;28;20423;-75
2022/02/26 11:17:13;;;;;;;10.90;3.40;;;5.80;59.90;;;;;;4983664;28;20454;-78
2022/02/26 11:19:42;;;;;;;8.83;3.70;;;5.50;61.20;;;;;;4985747;28;20418;-77
2022/02/26 11:22:08;;;;;;;8.67;3.30;;;5.40;61.70;;;;;;4986220;28;20425;-76
2022/02/26 11:24:34;;;;;;;7.70;4.10;;;5.20;62.60;;;;;;5000558;28;20463;-75
2022/02/26 11:26:59;;;;;;;11.13;3.53;;;5.30;63.10;;;;;;4981663;28;20457;-75
2022/02/26 11:29:26;;;;;;;9.87;3.80;;;5.40;62.90;;;;;;4978904;28;20179;-76
2022/02/26 11:32:15;;;;;;;15.67;3.80;;;5.60;63.10;;;;;;4985517;28;20179;-76
2022/02/26 11:34:41;;;;;;;10.43;3.57;;;5.50;62.00;;;;;;4981609;28;20782;-79
2022/02/26 11:37:09;;;;;;;15.20;3.77;;;5.40;61.60;;;;;;4984503;28;20853;-76
2022/02/26 11:39:44;;;;;;;10.43;3.43;;;5.40;61.30;;;;;;4993016;28;20426;-75
2022/02/26 11:42:13;;;;;;;8.97;3.33;;;5.40;60.90;;;;;;4975755;28;20433;-77
2022/02/26 11:44:41;;;;;;;10.60;3.77;;;5.60;59.30;;;;;;4976601;28;20521;-74
2022/02/26 11:47:15;;;;;;;16.17;3.53;;;6.10;57.20;;;;;;4984077;28;20445;-75
2022/02/26 11:50:21;;;;;;;7.83;3.10;;;6.70;54.80;;;;;;4979080;28;20425;-74
2022/02/26 11:52:51;;;;;;;7.33;2.83;;;7.20;54.00;;;;;;4973000;28;20797;-77
2022/02/26 11:55:22;;;;;;;10.30;2.73;;;7.90;51.30;;;;;;4987858;28;20856;-79
2022/02/26 11:57:48;;;;;;;10.60;3.20;;;8.40;49.70;;;;;;4987458;28;20466;-76
2022/02/26 12:00:16;;;;;;;7.83;3.30;;;8.50;50.10;;;;;;4985837;28;20450;-76
2022/02/26 12:02:42;;;;;;;8.47;2.97;;;8.50;49.40;;;;;;4975161;28;20501;-76
2022/02/26 12:05:09;;;;;;;8.60;3.03;;;7.90;49.90;;;;;;4970400;28;20836;-75
2022/02/26 12:07:40;;;;;;;7.63;3.70;;;7.00;52.10;;;;;;4980261;28;20462;-77
2022/02/26 12:10:11;;;;;;;8.33;3.03;;;6.80;53.40;;;;;;4977699;28;20422;-79
2022/02/26 12:12:39;;;;;;;6.97;2.70;;;6.60;54.20;;;;;;4976928;28;20457;-74
2022/02/26 12:15:16;;;;;;;6.83;2.70;;;6.60;54.60;;;;;;4995291;28;20464;-77
2022/02/26 12:17:45;;;;;;;10.97;3.37;;;6.70;54.60;;;;;;4976057;28;20450;-75
2022/02/26 12:20:18;;;;;;;10.03;3.30;;;6.60;54.60;;;;;;4965461;28;20483;-75
2022/02/26 12:22:46;;;;;;;11.40;2.90;;;6.60;54.20;;;;;;4977189;28;20806;-77
2022/02/26 12:25:13;;;;;;;7.10;3.03;;;6.70;53.40;;;;;;4989008;28;20461;-77
2022/02/26 12:27:40;;;;;;;8.93;3.40;;;6.90;53.60;;;;;;4982907;28;20446;-77
2022/02/26 12:30:10;;;;;;;9.37;2.60;;;6.90;53.60;;;;;;4985051;28;20427;-75
2022/02/26 12:32:59;;;;;;;7.77;2.67;;;6.90;53.20;;;;;;4968962;28;20422;-76
2022/02/26 12:35:34;;;;;;;6.80;2.50;;;6.90;53.20;;;;;;4973185;28;20444;-77
2022/02/26 12:38:00;;;;;;;9.80;2.87;;;7.00;52.90;;;;;;4981870;28;20444;-76
2022/02/26 12:40:33;;;;;;;11.60;3.00;;;7.30;52.60;;;;;;4976886;28;20480;-76
2022/02/26 12:43:06;;;;;;;11.00;3.90;;;7.60;52.20;;;;;;4989588;28;20453;-76
2022/02/26 12:45:43;;;;;;;9.93;3.63;;;7.30;52.10;;;;;;4989876;28;20528;-76
2022/02/26 12:48:10;;;;;;;7.20;2.53;;;7.00;53.20;;;;;;4979830;28;20787;-75
2022/02/26 12:50:37;;;;;;;11.90;4.00;;;6.80;53.00;;;;;;4991920;28;20430;-75
2022/02/26 12:53:04;;;;;;;9.83;3.17;;;6.60;54.40;;;;;;4988194;28;20420;-76